createdAt,value
2023-11-06T00:01:40.490Z,97623.47
2023-11-06T00:04:07.950Z,97667.22
2023-11-06T00:06:35.124Z,97656.47
2023-11-06T00:09:05.506Z,97661.44
2023-11-06T00:11:33.151Z,97660.34
2023-11-06T00:14:00.863Z,97611.13
2023-11-06T00:16:29.761Z,97607.31
2023-11-06T00:18:57.286Z,97656.28
2023-11-06T00:21:27.909Z,97648.75
2023-11-06T00:23:57.076Z,97644.78
2023-11-06T00:26:24.528Z,97636.97
2023-11-06T00:28:55.894Z,97638.13
2023-11-06T00:31:24.118Z,97592.75
2023-11-06T00:33:52.882Z,97636.53
2023-11-06T00:36:21.536Z,97631.84
2023-11-06T00:38:49.857Z,97583.16
2023-11-06T00:41:17.626Z,97605.91
2023-11-06T00:43:44.904Z,97544.75
2023-11-06T00:46:12.479Z,97630.13
2023-11-06T00:48:41.147Z,97616.72
2023-11-06T00:51:08.762Z,97627.56
2023-11-06T00:53:36.239Z,97614.06
2023-11-06T00:56:04.500Z,97622.13
2023-11-06T00:58:32.088Z,97609.97
2023-11-06T01:00:59.505Z,97614.09
2023-11-06T01:03:27.013Z,97615.22
2023-11-06T01:05:54.642Z,97620.16
2023-11-06T01:08:22.648Z,97617.53
2023-11-06T01:10:50.282Z,97579.88
2023-11-06T01:13:17.834Z,97605.44
2023-11-06T01:15:45.421Z,97607.72
2023-11-06T01:18:13.161Z,97605.00
2023-11-06T01:20:42.255Z,97592.22
2023-11-06T01:23:10.166Z,97586.59
2023-11-06T01:25:44.196Z,97589.50
2023-11-06T01:28:12.841Z,97582.31
2023-11-06T01:30:40.977Z,97586.28
2023-11-06T01:33:08.596Z,97578.63
2023-11-06T01:35:36.588Z,97571.06
2023-11-06T01:38:04.120Z,97579.00
2023-11-06T01:40:31.883Z,97572.41
2023-11-06T01:43:08.829Z,97572.53
2023-11-06T01:45:37.735Z,97561.84
2023-11-06T01:48:06.555Z,97563.06
2023-11-06T01:50:37.084Z,97576.28
2023-11-06T01:53:10.649Z,97528.53
2023-11-06T01:55:40.478Z,97583.25
2023-11-06T01:58:08.128Z,97584.56
2023-11-06T02:00:35.438Z,97575.81
2023-11-06T02:03:07.118Z,97548.28
2023-11-06T02:05:39.361Z,97583.03
2023-11-06T02:08:07.217Z,97586.16
2023-11-06T02:10:34.785Z,97575.22
2023-11-06T02:13:02.779Z,97580.50
2023-11-06T02:15:30.504Z,97584.59
2023-11-06T02:17:58.472Z,97593.88
2023-11-06T02:20:26.175Z,97558.88
2023-11-06T02:23:02.748Z,97592.66
2023-11-06T02:25:30.168Z,97594.69
2023-11-06T02:27:57.776Z,97590.50
2023-11-06T02:30:25.570Z,97559.50
2023-11-06T02:32:53.187Z,97571.50
2023-11-06T02:35:20.476Z,97593.84
2023-11-06T02:37:48.035Z,97589.53
2023-11-06T02:40:15.507Z,97573.66
2023-11-06T02:42:42.703Z,97590.28
2023-11-06T02:45:11.272Z,97586.56
2023-11-06T02:47:38.839Z,97589.34
2023-11-06T02:50:06.960Z,97543.38
2023-11-06T02:52:35.345Z,97585.47
2023-11-06T02:55:02.850Z,97585.09
2023-11-06T02:57:32.007Z,97590.28
2023-11-06T02:59:59.548Z,97589.91
2023-11-06T03:02:26.840Z,97597.63
2023-11-06T03:04:54.446Z,97604.69
2023-11-06T03:07:22.134Z,97611.78
2023-11-06T03:09:49.723Z,97585.47
2023-11-06T03:12:17.159Z,97606.41
2023-11-06T03:14:44.832Z,97614.56
2023-11-06T03:17:12.902Z,97610.00
2023-11-06T03:19:40.277Z,97610.38
2023-11-06T03:22:08.287Z,97616.03
2023-11-06T03:24:35.615Z,97627.47
2023-11-06T03:27:03.109Z,97590.72
2023-11-06T03:29:30.646Z,97622.88
2023-11-06T03:31:58.411Z,97633.59
2023-11-06T03:34:25.991Z,97629.47
2023-11-06T03:36:53.565Z,97629.47
2023-11-06T03:39:21.245Z,97631.16
2023-11-06T03:41:48.956Z,97588.34
2023-11-06T03:44:16.833Z,97625.97
2023-11-06T03:46:44.508Z,97637.25
2023-11-06T03:49:12.346Z,97636.66
2023-11-06T03:51:40.362Z,97631.72
2023-11-06T03:54:07.724Z,97605.13
2023-11-06T03:56:35.090Z,97645.09
2023-11-06T03:59:02.926Z,97647.72
2023-11-06T04:01:35.556Z,97614.03
2023-11-06T04:04:04.027Z,97662.97
2023-11-06T04:06:32.541Z,97667.16
2023-11-06T04:09:00.040Z,97640.16
2023-11-06T04:11:27.796Z,97683.59
2023-11-06T04:13:55.215Z,97688.03
2023-11-06T04:16:22.670Z,97681.53
2023-11-06T04:18:50.767Z,97683.91
2023-11-06T04:21:18.496Z,97666.59
2023-11-06T04:23:46.130Z,97671.63
2023-11-06T04:26:14.170Z,97676.78
2023-11-06T04:28:41.757Z,97676.91
2023-11-06T04:31:09.732Z,97679.78
2023-11-06T04:33:37.379Z,97680.84
2023-11-06T04:36:05.329Z,97682.41
2023-11-06T04:38:32.644Z,97680.09
2023-11-06T04:41:00.322Z,97687.59
2023-11-06T04:43:27.953Z,97691.81
2023-11-06T04:45:55.712Z,97693.81
2023-11-06T04:48:23.162Z,97699.97
2023-11-06T04:50:50.882Z,97694.69
2023-11-06T04:53:18.197Z,97700.06
2023-11-06T04:55:45.801Z,97699.34
2023-11-06T04:58:13.113Z,97688.72
2023-11-06T05:00:41.688Z,97704.34
2023-11-06T05:03:09.507Z,97696.53
2023-11-06T05:05:39.182Z,97703.75
2023-11-06T05:08:07.291Z,97716.72
2023-11-06T05:10:34.985Z,97710.59
2023-11-06T05:13:02.511Z,97711.72
2023-11-06T05:15:30.094Z,97705.47
2023-11-06T05:17:59.149Z,97690.03
2023-11-06T05:20:27.916Z,97705.97
2023-11-06T05:22:56.661Z,97704.81
2023-11-06T05:25:24.206Z,97708.38
2023-11-06T05:27:52.787Z,97654.31
2023-11-06T05:30:20.334Z,97700.47
2023-11-06T05:32:47.962Z,97618.81
2023-11-06T05:35:16.209Z,97705.56
2023-11-06T05:37:43.908Z,97670.75
2023-11-06T05:40:12.143Z,97703.63
2023-11-06T05:42:40.310Z,97698.47
2023-11-06T05:45:11.041Z,97615.13
2023-11-06T05:47:38.991Z,97708.66
2023-11-06T05:50:07.796Z,97709.53
2023-11-06T05:52:35.369Z,97701.47
2023-11-06T05:55:03.752Z,97702.81
2023-11-06T05:57:32.582Z,97705.88
2023-11-06T06:00:00.296Z,97715.97
2023-11-06T06:02:28.856Z,97699.78
2023-11-06T06:04:58.712Z,97672.13
2023-11-06T06:07:26.183Z,97698.41
2023-11-06T06:09:53.879Z,97647.50
2023-11-06T06:12:21.131Z,97651.47
2023-11-06T06:14:48.364Z,97683.28
2023-11-06T06:17:16.988Z,97691.13
2023-11-06T06:19:44.442Z,97701.56
2023-11-06T06:22:11.804Z,97650.31
2023-11-06T06:24:39.541Z,97667.66
2023-11-06T06:27:06.936Z,97681.16
2023-11-06T06:29:34.273Z,97687.69
2023-11-06T06:32:02.153Z,97689.41
2023-11-06T06:34:29.534Z,97691.56
2023-11-06T06:36:57.283Z,97694.59
2023-11-06T06:39:24.800Z,97683.53
2023-11-06T06:41:52.517Z,97691.56
2023-11-06T06:44:20.075Z,97599.38
2023-11-06T06:46:47.613Z,97681.47
2023-11-06T06:49:16.390Z,97683.50
2023-11-06T06:51:43.712Z,97676.53
2023-11-06T06:54:11.431Z,97684.47
2023-11-06T06:56:38.834Z,97679.56
2023-11-06T06:59:06.062Z,97684.69
2023-11-06T07:01:33.661Z,97678.56
2023-11-06T07:04:01.105Z,97671.84
2023-11-06T07:06:29.031Z,97649.06
2023-11-06T07:08:58.602Z,97653.03
2023-11-06T07:11:26.123Z,97680.88
2023-11-06T07:13:53.682Z,97671.00
2023-11-06T07:16:21.390Z,97687.09
2023-11-06T07:18:49.356Z,97669.97
2023-11-06T07:21:18.690Z,97674.28
2023-11-06T07:23:46.443Z,97595.34
2023-11-06T07:26:14.241Z,97670.06
2023-11-06T07:28:41.645Z,97661.38
2023-11-06T07:31:10.072Z,97667.28
2023-11-06T07:33:38.038Z,97650.78
2023-11-06T07:36:08.240Z,97677.53
2023-11-06T07:38:37.018Z,97651.06
2023-11-06T07:41:05.007Z,97692.22
2023-11-06T07:43:32.377Z,97661.03
2023-11-06T07:46:00.055Z,97628.84
2023-11-06T07:48:28.551Z,97705.28
2023-11-06T07:50:56.351Z,97673.16
2023-11-06T07:53:24.364Z,97700.22
2023-11-06T07:55:52.167Z,97704.78
2023-11-06T07:58:19.566Z,97675.84
2023-11-06T08:00:50.637Z,97678.75
2023-11-06T08:03:19.097Z,97687.91
2023-11-06T08:05:46.680Z,97694.84
2023-11-06T08:08:14.762Z,97688.09
2023-11-06T08:10:42.295Z,97697.22
2023-11-06T08:13:09.735Z,97684.94
2023-11-06T08:15:37.222Z,97695.53
2023-11-06T08:18:04.833Z,97690.47
2023-11-06T08:20:35.206Z,97685.88
2023-11-06T08:23:02.941Z,97685.84
2023-11-06T08:25:33.278Z,97688.94
2023-11-06T08:28:00.986Z,97634.47
2023-11-06T08:30:28.804Z,97671.47
2023-11-06T08:32:56.498Z,97642.06
2023-11-06T08:35:23.956Z,97674.50
2023-11-06T08:37:51.376Z,97600.38
2023-11-06T08:40:19.025Z,97659.28
2023-11-06T08:42:46.741Z,97651.59
2023-11-06T08:45:14.494Z,97602.84
2023-11-06T08:47:42.240Z,97657.38
2023-11-06T08:50:10.505Z,97652.69
2023-11-06T08:52:38.244Z,97651.03
2023-11-06T08:55:07.300Z,97626.16
2023-11-06T08:57:35.553Z,97625.59
2023-11-06T09:00:02.962Z,97623.22
2023-11-06T09:02:33.003Z,97619.63
2023-11-06T09:05:00.642Z,97614.34
2023-11-06T09:07:29.113Z,97618.31
2023-11-06T09:09:56.524Z,97597.13
2023-11-06T09:12:23.916Z,97621.53
2023-11-06T09:14:51.436Z,97612.50
2023-11-06T09:17:18.944Z,97624.53
2023-11-06T09:19:47.504Z,97605.16
2023-11-06T09:22:15.834Z,97602.28
2023-11-06T09:24:43.603Z,97605.66
2023-11-06T09:27:11.082Z,97608.25
2023-11-06T09:29:39.135Z,97572.47
2023-11-06T09:32:08.503Z,97585.09
2023-11-06T09:34:37.624Z,97578.75
2023-11-06T09:37:04.966Z,97573.31
2023-11-06T09:39:33.142Z,97585.81
2023-11-06T09:42:00.447Z,97574.88
2023-11-06T09:44:29.750Z,97573.06
2023-11-06T09:46:57.880Z,97569.47
2023-11-06T09:49:31.810Z,97574.63
2023-11-06T09:52:04.668Z,97562.34
2023-11-06T09:54:32.352Z,97565.13
2023-11-06T09:57:01.231Z,97550.84
2023-11-06T09:59:29.125Z,97541.91
2023-11-06T10:01:56.699Z,97555.97
2023-11-06T10:04:24.420Z,97556.16
2023-11-06T10:06:52.696Z,97560.38
2023-11-06T10:09:26.981Z,97545.75
2023-11-06T10:12:00.171Z,97541.69
2023-11-06T10:14:40.759Z,97537.47
2023-11-06T10:17:08.550Z,97538.41
2023-11-06T10:19:36.569Z,97532.50
2023-11-06T10:22:16.695Z,97532.00
2023-11-06T10:24:51.203Z,97525.34
2023-11-06T10:27:31.065Z,97526.44
2023-11-06T10:30:06.797Z,97526.50
2023-11-06T10:32:36.094Z,97508.94
2023-11-06T10:35:16.198Z,97523.59
2023-11-06T10:37:46.312Z,97504.00
2023-11-06T10:40:16.043Z,97490.28
2023-11-06T10:42:45.414Z,97498.97
2023-11-06T10:45:16.389Z,97508.16
2023-11-06T10:47:48.620Z,97502.47
2023-11-06T10:50:21.296Z,97465.53
2023-11-06T10:52:56.510Z,97500.72
2023-11-06T10:55:31.484Z,97496.78
2023-11-06T10:58:02.424Z,97495.41
2023-11-06T11:00:33.166Z,97469.72
2023-11-06T11:03:02.371Z,97493.09
2023-11-06T11:05:36.275Z,97487.81
2023-11-06T11:08:05.765Z,97434.44
2023-11-06T11:10:33.506Z,97484.50
2023-11-06T11:13:04.473Z,97485.59
2023-11-06T11:15:34.398Z,97476.94
2023-11-06T11:18:09.047Z,97466.41
2023-11-06T11:20:54.388Z,97468.66
2023-11-06T11:23:48.467Z,97468.41
2023-11-06T11:26:16.374Z,97465.06
2023-11-06T11:29:01.531Z,97475.97
2023-11-06T11:31:41.665Z,97422.97
2023-11-06T11:34:10.556Z,97473.31
2023-11-06T11:36:41.856Z,97416.78
2023-11-06T11:39:18.303Z,97442.31
2023-11-06T11:42:00.568Z,97460.84
2023-11-06T11:44:28.951Z,97457.69
2023-11-06T11:46:58.841Z,97454.91
2023-11-06T11:49:42.610Z,97453.84
2023-11-06T11:52:14.977Z,97430.59
2023-11-06T11:54:42.956Z,97452.56
